createdAt,value
2019-01-17T06:50:45.412Z,5.6
2019-01-17T06:50:55.266Z,5.3
2019-01-17T06:51:05.205Z,2.3
2019-01-17T06:51:14.832Z,1.8
2019-01-17T06:51:24.268Z,2
2019-01-17T06:51:33.551Z,2.2
2019-01-17T06:51:42.928Z,1.6
2019-01-17T06:51:52.552Z,1.7
2019-01-17T06:52:03.451Z,1.6
2019-01-17T06:52:13.152Z,1.8
2019-01-17T06:52:23.171Z,1.8
2019-01-17T06:52:32.906Z,1.5
2019-01-17T06:52:42.231Z,1.1
2019-01-17T06:52:51.527Z,1.5
2019-01-17T06:53:02.032Z,2.2
2019-01-17T06:53:11.230Z,2.6
2019-01-17T06:53:20.552Z,2.8
2019-01-17T06:53:31.192Z,2.1
2019-01-17T06:53:43.327Z,1.7
2019-01-17T06:53:53.086Z,1.8
2019-01-17T06:54:02.365Z,1.5
2019-01-17T06:54:14.130Z,2.8
2019-01-17T06:54:23.691Z,2.4
2019-01-17T06:54:33.266Z,2.8
2019-01-17T06:54:42.945Z,2.9
2019-01-17T06:54:52.405Z,2.8
2019-01-17T06:55:03.414Z,2.5
2019-01-17T06:55:13.054Z,1.3
2019-01-17T06:55:22.868Z,1.6
2019-01-17T06:55:34.700Z,1.7
2019-01-17T06:55:44.895Z,1.5
2019-01-17T06:55:54.305Z,1
2019-01-17T06:56:04.709Z,1
2019-01-17T06:56:14.931Z,1.8
2019-01-17T06:56:24.287Z,3.6
2019-01-17T06:56:33.971Z,3.5
2019-01-17T06:56:43.147Z,2.7
2019-01-17T06:56:52.432Z,1.3
2019-01-17T06:57:02.091Z,1.8
2019-01-17T06:57:11.371Z,1.9
2019-01-17T06:57:20.787Z,3.6
2019-01-17T06:57:29.892Z,3.9
2019-01-17T06:57:39.111Z,4.1
2019-01-17T06:57:48.568Z,3.7
2019-01-17T06:57:57.932Z,1.4
2019-01-17T06:58:07.445Z,6
2019-01-17T06:58:16.714Z,6
2019-01-17T06:58:26.772Z,6.1
2019-01-17T06:58:38.526Z,3.9
2019-01-17T06:58:49.768Z,1.6
2019-01-17T06:59:01.771Z,1.4
2019-01-17T06:59:11.892Z,1.5
2019-01-17T06:59:21.992Z,1.8
2019-01-17T06:59:34.108Z,1.8
2019-01-17T06:59:44.251Z,5.4
2019-01-17T06:59:54.208Z,5.5
2019-01-17T07:00:03.989Z,7.9
2019-01-17T07:00:13.991Z,3.5
2019-01-17T07:00:24.510Z,4.2
2019-01-17T07:00:34.214Z,4.6
2019-01-17T07:00:45.351Z,5.2
2019-01-17T07:00:57.127Z,1.7
2019-01-17T07:01:06.613Z,2.1
2019-01-17T07:01:16.778Z,1.6
2019-01-17T07:01:26.592Z,1.9
2019-01-17T07:01:36.791Z,1.8
2019-01-17T07:01:47.430Z,3.5
2019-01-17T07:01:56.909Z,3.7
2019-01-17T07:02:07.892Z,3.4
2019-01-17T07:02:17.627Z,3.1
2019-01-17T07:02:27.630Z,1.4
2019-01-17T07:02:37.327Z,1.5
2019-01-17T07:02:46.826Z,1
2019-01-17T07:02:56.173Z,2.1
2019-01-17T07:03:06.486Z,2.1
2019-01-17T07:03:16.745Z,2.1
2019-01-17T07:03:26.105Z,2.1
2019-01-17T07:03:35.330Z,2.1
2019-01-17T07:03:44.850Z,2.5
2019-01-17T07:03:56.274Z,2
2019-01-17T07:04:05.912Z,2.1
2019-01-17T07:04:17.049Z,2.5
2019-01-17T07:04:27.448Z,2.7
2019-01-17T07:04:38.428Z,2.9
2019-01-17T07:04:47.851Z,2.1
2019-01-17T07:04:57.570Z,1.7
2019-01-17T07:05:07.254Z,2.9
2019-01-17T07:05:16.987Z,2.5
2019-01-17T07:05:27.192Z,3.1
2019-01-17T07:05:37.108Z,1.8
2019-01-17T07:05:46.672Z,2.5
2019-01-17T07:05:57.633Z,2
2019-01-17T07:06:07.312Z,3.9
2019-01-17T07:06:17.005Z,3
2019-01-17T07:06:26.971Z,1.6
2019-01-17T07:06:36.632Z,2.3
2019-01-17T07:06:47.406Z,3.9
2019-01-17T07:06:57.833Z,4
2019-01-17T07:07:07.709Z,3.7
2019-01-17T07:07:17.327Z,3
2019-01-17T07:07:26.769Z,3.2
2019-01-17T07:07:36.306Z,3.4
2019-01-17T07:07:46.149Z,2.5
2019-01-17T07:07:55.990Z,1.9
2019-01-17T07:08:05.569Z,1.5
2019-01-17T07:08:15.770Z,1.5
2019-01-17T07:08:25.446Z,2
2019-01-17T07:08:35.447Z,2
2019-01-17T07:08:45.151Z,3.5
2019-01-17T07:08:55.910Z,3.9
2019-01-17T07:09:06.272Z,5.4
2019-01-17T07:09:16.753Z,3.8
2019-01-17T07:09:26.966Z,4.9
2019-01-17T07:09:37.952Z,3.7
2019-01-17T07:09:47.953Z,5.6
2019-01-17T07:09:57.772Z,5.9
2019-01-17T07:10:07.826Z,5.8
2019-01-17T07:55:35.113Z,3.2
2019-01-17T07:55:49.672Z,2.9
2019-01-17T07:56:00.632Z,5.4
2019-01-17T07:56:11.993Z,4.4
2019-01-17T07:56:23.432Z,0.1
2019-01-17T07:56:33.387Z,0.1
2019-01-17T07:56:44.411Z,0.1
2019-01-17T07:56:55.598Z,0.2
2019-01-17T07:57:05.494Z,0.2
2019-01-17T07:57:15.291Z,0.2
2019-01-17T07:57:25.666Z,0.1
2019-01-17T07:57:35.611Z,0.1
2019-01-17T07:57:45.852Z,0.1
2019-01-17T07:57:55.890Z,0.1
2019-01-17T07:58:07.109Z,0.2
2019-01-17T07:58:17.346Z,0.2
2019-01-17T07:58:27.651Z,0.2
2019-01-17T07:58:37.449Z,0.1
2019-01-17T07:58:47.830Z,0.1
2019-01-17T07:58:58.031Z,0.1
2019-01-17T07:59:07.869Z,0.1
2019-01-17T07:59:18.672Z,0.1
2019-01-17T07:59:29.112Z,0.1
2019-01-17T07:59:38.826Z,0.5
2019-01-17T07:59:49.191Z,0.8
2019-01-17T07:59:59.867Z,0.8
2019-01-17T08:00:09.385Z,0.1
2019-01-17T08:00:21.132Z,0.1
2019-01-17T08:00:32.427Z,0.1
2019-01-17T08:00:43.689Z,0.1
2019-01-17T08:00:56.250Z,0.1
2019-01-17T08:01:06.172Z,0.1
2019-01-17T08:01:18.766Z,0.1
2019-01-17T08:01:28.869Z,0.1
2019-01-17T08:01:40.992Z,0.1
2019-01-17T08:01:52.208Z,0.1
2019-01-17T08:02:02.386Z,0.1
2019-01-17T08:02:13.834Z,0.1
2019-01-17T08:02:23.672Z,0.1
2019-01-17T08:02:34.708Z,0.1
2019-01-17T08:02:45.206Z,0.1
2019-01-17T08:02:58.452Z,0.1
2019-01-17T08:03:08.851Z,0.1
2019-01-17T08:03:20.489Z,0.1
2019-01-17T08:03:30.954Z,0.1
2019-01-17T08:03:42.393Z,0.1
2019-01-17T08:03:52.593Z,0.2
2019-01-17T08:04:05.848Z,0.1
2019-01-17T08:04:15.282Z,0.1
2019-01-17T08:04:24.884Z,0.1
2019-01-17T08:04:35.047Z,0.1
2019-01-17T08:04:45.264Z,0.2
2019-01-17T08:04:55.247Z,0.2
2019-01-17T08:05:05.930Z,0.1
2019-01-17T08:05:15.647Z,0.1
2019-01-17T08:05:25.346Z,0.1
2019-01-17T08:05:35.013Z,0.1
2019-01-17T08:05:46.482Z,0.1
2019-01-17T08:05:57.705Z,0.2
2019-01-17T08:06:09.684Z,0.1
2019-01-17T08:06:31.267Z,0
2019-01-17T08:06:40.993Z,0.1
2019-01-17T08:06:56.664Z,0.1
2019-01-17T08:07:05.532Z,0.2
2019-01-17T08:07:15.446Z,0.1
2019-01-17T08:07:25.507Z,0.1
2019-01-17T08:07:36.331Z,0.1
2019-01-17T08:07:47.506Z,0.1
2019-01-17T08:07:59.231Z,0.1
2019-01-17T08:08:10.346Z,0.1
2019-01-17T08:08:20.591Z,0.1
2019-01-17T08:08:31.025Z,0.1
2019-01-17T08:08:40.849Z,0.1
2019-01-17T08:08:51.229Z,0.1
2019-01-17T08:09:02.050Z,0.1
2019-01-17T08:09:16.111Z,0.2
2019-01-17T08:09:27.831Z,0.1
2019-01-17T08:09:38.170Z,0.3
2019-01-17T08:09:51.350Z,0.7
2019-01-17T08:10:04.972Z,0.8
2019-01-17T08:10:15.291Z,1.3
2019-01-17T08:10:25.430Z,3.2
2019-01-17T08:10:36.447Z,3.6
2019-01-17T08:10:46.505Z,7.1
2019-01-17T08:10:57.092Z,5.6
2019-01-17T08:11:10.048Z,5.6
2019-01-17T08:11:21.173Z,2.2
2019-01-17T08:11:31.774Z,2.2
2019-01-17T08:11:41.772Z,1.8
2019-01-17T08:11:51.772Z,1.8
2019-01-17T08:12:05.063Z,3.4
2019-01-17T08:12:15.390Z,3.2
2019-01-17T08:12:25.305Z,3.1
2019-01-17T08:12:34.706Z,1.8
2019-01-17T08:12:44.392Z,1.5
2019-01-17T08:12:55.649Z,1.8
2019-01-17T08:13:05.071Z,2.4
2019-01-17T08:13:15.790Z,1.8
2019-01-17T08:13:25.666Z,3.3
2019-01-17T08:13:35.185Z,2.9
2019-01-17T08:13:45.452Z,3
2019-01-17T08:13:55.146Z,1.9
2019-01-17T08:14:04.930Z,1.5
2019-01-17T08:14:14.511Z,1.8
2019-01-17T08:14:24.665Z,2.4
2019-01-17T08:14:34.330Z,4.8
2019-01-17T08:14:44.446Z,4.3
2019-01-17T08:14:54.312Z,3.5
2019-01-17T08:15:04.105Z,4
2019-01-17T08:15:13.847Z,1.2
2019-01-17T08:15:24.749Z,1.6
2019-01-17T08:15:34.188Z,1.7
2019-01-17T08:15:43.565Z,1.9
2019-01-17T08:15:53.332Z,1.6
2019-01-17T08:16:03.809Z,1.6
2019-01-17T08:16:13.820Z,1
2019-01-17T08:16:23.866Z,2.2
2019-01-17T08:16:33.548Z,3.1
2019-01-17T08:16:43.153Z,3
2019-01-17T08:16:55.526Z,2
2019-01-17T08:17:08.229Z,1.4
2019-01-17T08:17:17.586Z,1.6
2019-01-17T08:17:27.826Z,2.7
2019-01-17T08:17:37.666Z,2.7
2019-01-17T08:17:47.505Z,2.8
